Time;durP1;ratioP1;P1;durP2;ratioP2;P2;SDS_P1;SDS_P2;PMS_P1;PMS_P2;Temp;Humidity;BMP_temperature;BMP_pressure;BME280_temperature;BME280_humidity;BME280_pressure;Samples;Min_cycle;Max_cycle;Signal;HPM_P1;HPM_P2
2023/10/12 00:02:27;;;;;;;0.60;0.60;;;20.00;99.90;;;;;;5047889;28;20021;-83
2023/10/12 00:04:59;;;;;;;0.60;0.60;;;20.00;99.90;;;;;;5045547;28;20029;-83
2023/10/12 00:07:33;;;;;;;1.08;1.08;;;20.10;99.90;;;;;;5044169;28;20031;-83
2023/10/12 00:10:02;;;;;;;1.45;1.35;;;20.10;99.90;;;;;;5045149;28;20036;-82
2023/10/12 00:12:35;;;;;;;1.50;1.40;;;20.10;99.90;;;;;;5062326;28;20025;-83
2023/10/12 00:15:05;;;;;;;0.98;0.98;;;20.10;99.90;;;;;;5062549;28;20595;-82
2023/10/12 00:17:33;;;;;;;0.95;0.93;;;20.20;99.90;;;;;;5047686;28;20025;-83
2023/10/12 00:19:59;;;;;;;1.55;1.20;;;20.10;99.90;;;;;;5064351;28;20025;-83
2023/10/12 00:22:25;;;;;;;1.52;1.42;;;20.00;99.90;;;;;;5047589;28;20032;-83
2023/10/12 00:24:52;;;;;;;0.65;0.65;;;20.00;99.90;;;;;;5064387;28;20024;-82
2023/10/12 00:27:20;;;;;;;0.98;0.80;;;19.90;99.90;;;;;;5045543;28;20102;-83
2023/10/12 00:29:48;;;;;;;1.23;1.13;;;19.90;99.90;;;;;;5048081;28;20051;-83
2023/10/12 00:32:14;;;;;;;1.90;1.10;;;19.80;99.90;;;;;;5047859;28;20024;-83
2023/10/12 00:34:47;;;;;;;1.15;1.00;;;19.70;99.90;;;;;;5062964;28;20457;-83
2023/10/12 00:37:14;;;;;;;0.60;0.60;;;19.70;99.90;;;;;;5065859;28;20021;-83
2023/10/12 00:40:21;;;;;;;0.98;0.98;;;19.60;99.90;;;;;;5046775;28;20025;-82
2023/10/12 00:42:51;;;;;;;0.85;0.85;;;19.50;99.90;;;;;;5088126;28;20017;-83
2023/10/12 00:45:20;;;;;;;2.58;2.38;;;19.40;99.90;;;;;;5073026;28;20636;-84
2023/10/12 00:47:48;;;;;;;2.05;1.38;;;19.40;99.90;;;;;;5063923;28;20099;-83
2023/10/12 00:50:15;;;;;;;2.17;1.70;;;19.40;99.90;;;;;;5043524;28;20120;-83
2023/10/12 00:52:55;;;;;;;1.20;1.17;;;19.30;99.90;;;;;;5047179;28;20024;-82
2023/10/12 00:55:34;;;;;;;5.05;1.55;;;19.20;99.90;;;;;;5065539;28;20047;-84
2023/10/12 00:58:09;;;;;;;1.52;1.42;;;19.30;99.90;;;;;;5054719;28;20504;-84
2023/10/12 01:00:37;;;;;;;1.88;1.77;;;19.20;99.90;;;;;;5046325;28;20066;-83
2023/10/12 01:06:12;;;;;;;1.42;1.33;;;19.20;99.90;;;;;;5060720;28;20059;-83
2023/10/12 01:08:33;;;;;;;1.30;1.20;;;19.10;99.90;;;;;;5064425;28;20566;-83
2023/10/12 01:11:04;;;;;;;1.02;1.02;;;19.00;99.90;;;;;;5063773;28;20460;-82
2023/10/12 01:13:33;;;;;;;1.42;1.15;;;18.90;99.90;;;;;;5066180;28;20064;-83
2023/10/12 01:16:03;;;;;;;0.93;0.93;;;18.90;99.90;;;;;;5066550;28;20124;-83
2023/10/12 01:18:29;;;;;;;1.73;1.63;;;18.90;99.90;;;;;;5051104;28;20033;-83
2023/10/12 01:20:54;;;;;;;3.22;1.42;;;18.80;99.90;;;;;;5078580;28;20030;-84
2023/10/12 01:23:22;;;;;;;1.48;1.15;;;18.80;99.90;;;;;;5077803;28;20105;-83
2023/10/12 01:25:49;;;;;;;1.77;1.67;;;18.70;99.90;;;;;;5066529;28;20426;-83
2023/10/12 01:28:15;;;;;;;3.05;2.20;;;18.70;99.90;;;;;;5062866;28;20021;-82
2023/10/12 01:30:41;;;;;;;1.73;1.63;;;18.60;99.90;;;;;;5045123;28;20087;-82
2023/10/12 01:33:07;;;;;;;2.10;1.73;;;18.60;99.90;;;;;;5063882;28;20031;-84
2023/10/12 01:35:39;;;;;;;1.88;1.77;;;18.40;99.90;;;;;;5059987;28;20299;-85
2023/10/12 01:38:05;;;;;;;1.95;1.85;;;18.40;99.90;;;;;;5063389;28;20082;-83
2023/10/12 01:40:44;;;;;;;1.65;1.55;;;18.30;99.90;;;;;;5064358;28;20641;-82
2023/10/12 01:43:12;;;;;;;2.15;1.80;;;18.20;99.90;;;;;;5062150;28;20020;-82
2023/10/12 01:45:41;;;;;;;2.25;2.15;;;18.30;99.90;;;;;;5061567;28;20020;-82
2023/10/12 01:48:10;;;;;;;2.10;1.75;;;18.20;99.90;;;;;;5042149;28;20082;-82
2023/10/12 01:50:39;;;;;;;1.92;1.83;;;18.20;99.90;;;;;;5043960;28;20098;-82
2023/10/12 01:53:32;;;;;;;1.70;1.60;;;18.00;99.90;;;;;;5045520;28;20112;-81
2023/10/12 01:55:59;;;;;;;1.55;1.55;;;18.00;99.90;;;;;;5061882;28;20081;-81
2023/10/12 01:58:27;;;;;;;1.88;1.73;;;18.00;99.90;;;;;;5062823;28;20036;-82
2023/10/12 02:00:55;;;;;;;1.98;1.58;;;18.00;99.90;;;;;;5061613;28;20432;-82
2023/10/12 02:05:58;;;;;;;1.05;1.05;;;18.00;99.90;;;;;;5057863;28;20651;-82
2023/10/12 02:08:52;;;;;;;1.55;1.45;;;17.90;99.90;;;;;;5052744;28;20024;-81
2023/10/12 02:13:50;;;;;;;1.30;1.23;;;17.80;99.90;;;;;;5066379;28;20043;-81
2023/10/12 02:16:25;;;;;;;0.93;0.93;;;17.60;99.90;;;;;;5065353;28;20016;-82
2023/10/12 02:18:53;;;;;;;1.45;1.35;;;17.60;99.90;;;;;;5048365;28;20033;-82
2023/10/12 02:21:22;;;;;;;3.13;2.83;;;17.60;99.90;;;;;;5063525;28;20035;-82
2023/10/12 02:24:10;;;;;;;3.13;1.77;;;17.50;99.90;;;;;;5067330;28;20021;-81
2023/10/12 02:34:18;;;;;;;0.98;0.98;;;17.30;99.90;;;;;;5067017;28;20013;-81
2023/10/12 02:39:40;;;;;;;2.83;1.17;;;17.30;99.90;;;;;;5067515;28;20031;-82
2023/10/12 02:47:24;;;;;;;1.33;1.30;;;17.30;99.90;;;;;;5065175;28;20041;-83
2023/10/12 02:49:51;;;;;;;2.35;2.15;;;17.20;99.90;;;;;;5065954;28;20818;-82
2023/10/12 02:52:20;;;;;;;2.55;2.35;;;17.10;99.90;;;;;;5051895;28;20029;-82
2023/10/12 02:54:50;;;;;;;1.02;1.02;;;17.20;99.90;;;;;;5055414;28;20055;-82
2023/10/12 02:57:21;;;;;;;1.00;1.00;;;17.20;99.90;;;;;;5070858;28;20024;-82
2023/10/12 02:59:49;;;;;;;1.35;1.30;;;17.30;99.90;;;;;;5049667;28;20059;-82
2023/10/12 03:02:21;;;;;;;1.65;1.55;;;17.20;99.90;;;;;;5048648;28;20116;-82
2023/10/12 03:04:47;;;;;;;3.33;1.30;;;17.20;99.90;;;;;;5046363;28;20024;-82
2023/10/12 03:07:22;;;;;;;4.38;1.17;;;17.20;99.90;;;;;;5062811;28;20028;-82
2023/10/12 03:09:55;;;;;;;1.00;1.00;;;17.30;99.90;;;;;;5050465;28;20029;-81
2023/10/12 03:12:25;;;;;;;2.45;2.00;;;17.20;99.90;;;;;;5064502;28;20044;-82
2023/10/12 03:14:51;;;;;;;1.65;1.55;;;17.20;99.90;;;;;;5068099;28;20099;-82
2023/10/12 03:17:23;;;;;;;1.60;1.50;;;17.20;99.90;;;;;;5049538;28;20020;-82
2023/10/12 03:20:15;;;;;;;1.65;1.48;;;17.20;99.90;;;;;;5048808;28;20035;-81
2023/10/12 03:22:43;;;;;;;1.10;1.10;;;17.20;99.90;;;;;;5062056;28;20019;-82
2023/10/12 03:25:37;;;;;;;2.40;1.67;;;17.10;99.90;;;;;;5053645;28;20028;-82
2023/10/12 03:28:12;;;;;;;1.25;1.25;;;17.20;99.90;;;;;;5066885;28;20127;-81
2023/10/12 03:30:43;;;;;;;2.03;1.90;;;17.20;99.90;;;;;;5067721;28;20063;-82
2023/10/12 03:33:14;;;;;;;1.15;0.93;;;17.20;99.90;;;;;;5047450;28;20109;-81
2023/10/12 03:35:57;;;;;;;1.58;1.45;;;17.10;99.90;;;;;;5045428;28;20028;-81
2023/10/12 03:38:32;;;;;;;2.42;2.25;;;17.20;99.90;;;;;;5064144;28;20192;-82
2023/10/12 03:44:04;;;;;;;2.28;2.17;;;17.20;99.90;;;;;;5021939;28;20463;-80
2023/10/12 03:46:32;;;;;;;2.05;1.88;;;17.20;99.90;;;;;;5066020;28;20778;-80
2023/10/12 03:49:17;;;;;;;1.65;1.55;;;17.20;99.90;;;;;;5066786;28;20547;-80
2023/10/12 03:51:43;;;;;;;1.20;1.20;;;17.10;99.90;;;;;;5045431;28;20028;-81
2023/10/12 03:54:18;;;;;;;2.05;1.95;;;17.00;99.90;;;;;;5067942;28;20481;-82
2023/10/12 03:56:48;;;;;;;1.52;1.52;;;17.00;99.90;;;;;;5065427;28;20097;-81
2023/10/12 03:59:27;;;;;;;1.10;1.10;;;17.10;99.90;;;;;;5049120;28;20024;-81
2023/10/12 04:01:54;;;;;;;1.73;1.60;;;17.10;99.90;;;;;;5047772;28;20048;-81
2023/10/12 04:04:28;;;;;;;1.58;1.48;;;17.10;99.90;;;;;;5048664;28;20629;-81
2023/10/12 04:09:31;;;;;;;1.55;1.45;;;17.10;99.90;;;;;;5068463;28;20048;-81
2023/10/12 04:22:35;;;;;;;1.52;1.45;;;16.70;99.90;;;;;;5067663;28;20024;-81
2023/10/12 04:25:12;;;;;;;;;;;16.70;99.90;;;;;;5068579;28;20025;-81
2023/10/12 04:30:18;;;;;;;1.25;1.15;;;16.60;99.90;;;;;;5064370;28;20186;-81
2023/10/12 04:35:22;;;;;;;0.90;0.90;;;16.70;99.90;;;;;;5062951;28;20036;-82
2023/10/12 04:37:48;;;;;;;0.90;0.90;;;16.60;99.90;;;;;;5064115;28;20016;-81
2023/10/12 04:43:05;;;;;;;0.90;0.90;;;16.60;99.90;;;;;;5057841;28;20074;-81
2023/10/12 04:45:44;;;;;;;1.17;1.17;;;16.60;99.90;;;;;;5046480;28;20032;-81
2023/10/12 04:48:18;;;;;;;0.85;0.85;;;16.60;99.90;;;;;;5062096;28;20040;-81
2023/10/12 04:50:44;;;;;;;1.02;1.02;;;16.60;99.90;;;;;;5044247;28;20511;-82
2023/10/12 04:53:12;;;;;;;1.65;1.60;;;16.70;99.90;;;;;;5052707;28;20032;-81
2023/10/12 04:55:47;;;;;;;3.33;2.38;;;16.70;99.90;;;;;;5063819;28;20017;-80
2023/10/12 04:58:17;;;;;;;3.53;0.98;;;16.70;99.90;;;;;;5050765;28;20048;-81
2023/10/12 05:00:55;;;;;;;0.90;0.90;;;16.70;99.90;;;;;;5061860;28;20329;-81
2023/10/12 05:03:33;;;;;;;1.52;1.42;;;16.60;99.90;;;;;;5070313;28;20016;-81
2023/10/12 05:06:09;;;;;;;0.95;0.95;;;16.60;99.90;;;;;;5055663;28;20035;-81
2023/10/12 05:08:35;;;;;;;7.20;1.30;;;16.60;99.90;;;;;;5070588;28;20074;-80
2023/10/12 05:11:03;;;;;;;2.40;2.20;;;16.60;99.90;;;;;;5065487;28;20146;-80
2023/10/12 05:13:31;;;;;;;1.58;1.40;;;16.70;99.90;;;;;;5041885;28;20024;-81
2023/10/12 05:16:06;;;;;;;1.08;0.95;;;16.70;99.90;;;;;;5067452;28;20036;-81
2023/10/12 05:18:33;;;;;;;6.85;1.02;;;16.50;99.90;;;;;;5062478;28;20098;-81
2023/10/12 05:21:00;;;;;;;1.52;1.45;;;16.60;99.90;;;;;;5055640;28;20066;-81
2023/10/12 05:23:26;;;;;;;1.60;1.50;;;16.50;99.90;;;;;;5062443;28;20416;-82
2023/10/12 05:28:27;;;;;;;1.20;1.20;;;16.40;99.90;;;;;;5057943;28;20028;-81
2023/10/12 05:30:55;;;;;;;1.30;1.23;;;16.50;99.90;;;;;;5064418;28;20677;-82
2023/10/12 05:35:57;;;;;;;1.67;1.45;;;16.40;99.90;;;;;;5062555;28;20104;-81
2023/10/12 05:38:34;;;;;;;1.33;1.33;;;16.50;99.90;;;;;;5062469;28;20100;-81
2023/10/12 05:41:00;;;;;;;0.80;0.80;;;16.50;99.90;;;;;;5044017;28;20483;-82
2023/10/12 05:43:29;;;;;;;1.77;1.67;;;16.50;99.90;;;;;;5229728;22;20983;-83
2023/10/12 05:45:55;;;;;;;1.02;1.02;;;16.50;99.90;;;;;;5053829;28;20051;-81
2023/10/12 05:48:21;;;;;;;0.98;0.98;;;16.40;99.90;;;;;;5057538;28;20120;-82
2023/10/12 05:50:53;;;;;;;1.35;1.00;;;16.50;99.90;;;;;;5037730;28;20155;-82
2023/10/12 05:53:20;;;;;;;1.00;1.00;;;16.50;99.90;;;;;;5042710;28;20639;-83
2023/10/12 05:55:47;;;;;;;1.05;1.02;;;16.50;99.90;;;;;;5040423;28;20278;-82
2023/10/12 05:58:15;;;;;;;1.55;1.45;;;16.40;99.90;;;;;;5040519;28;20024;-82
2023/10/12 06:00:47;;;;;;;1.70;1.67;;;16.50;99.90;;;;;;5052580;28;20126;-81
2023/10/12 06:03:16;;;;;;;1.95;1.70;;;16.40;99.90;;;;;;5056281;28;20068;-81
2023/10/12 06:05:43;;;;;;;1.00;1.00;;;16.50;99.90;;;;;;5053475;28;20618;-82
2023/10/12 06:08:10;;;;;;;0.95;0.95;;;16.50;99.90;;;;;;5057214;28;20024;-83
2023/10/12 06:10:46;;;;;;;1.23;1.23;;;16.40;99.90;;;;;;5058179;28;20131;-81
2023/10/12 06:13:14;;;;;;;0.60;0.60;;;16.40;99.90;;;;;;5058066;28;20035;-82
2023/10/12 06:15:41;;;;;;;0.68;0.68;;;16.40;99.90;;;;;;5058089;28;20028;-82
2023/10/12 06:18:21;;;;;;;3.25;2.75;;;16.50;99.90;;;;;;5058208;28;20074;-82
2023/10/12 06:20:58;;;;;;;1.52;1.42;;;16.50;99.90;;;;;;5042087;28;20518;-80
2023/10/12 06:23:27;;;;;;;1.90;1.80;;;16.40;99.90;;;;;;5059423;28;20536;-81
2023/10/12 06:25:55;;;;;;;1.17;1.17;;;16.40;99.90;;;;;;5059620;28;20040;-81
2023/10/12 06:28:21;;;;;;;1.15;1.15;;;16.40;99.90;;;;;;5056953;28;20021;-80
2023/10/12 06:30:47;;;;;;;1.38;0.80;;;16.40;99.90;;;;;;5056245;28;20068;-81
2023/10/12 06:33:17;;;;;;;0.80;0.80;;;16.50;99.90;;;;;;5057497;28;20685;-80
2023/10/12 06:36:00;;;;;;;1.35;1.35;;;16.60;99.90;;;;;;5040375;28;20040;-81
2023/10/12 06:38:37;;;;;;;1.40;1.40;;;16.60;99.90;;;;;;5059315;28;20522;-83
2023/10/12 06:46:15;;;;;;;3.20;1.25;;;16.50;99.90;;;;;;5059225;28;20017;-83
2023/10/12 06:48:44;;;;;;;1.27;1.13;;;16.50;99.90;;;;;;5058179;28;20457;-81
2023/10/12 06:51:13;;;;;;;0.90;0.90;;;16.50;99.90;;;;;;5058587;28;20048;-81
2023/10/12 06:53:44;;;;;;;1.25;1.25;;;16.50;99.90;;;;;;5060613;28;20375;-80
2023/10/12 07:01:39;;;;;;;0.90;0.90;;;16.60;99.90;;;;;;5061122;28;20032;-81
2023/10/12 07:04:19;;;;;;;1.95;1.73;;;16.60;99.90;;;;;;5044758;28;20029;-81
2023/10/12 07:07:07;;;;;;;0.90;0.90;;;16.50;99.90;;;;;;5058585;28;20043;-80
2023/10/12 07:09:54;;;;;;;1.40;1.40;;;16.50;99.90;;;;;;5061115;28;20023;-83
2023/10/12 07:12:19;;;;;;;2.00;1.13;;;16.60;99.90;;;;;;5058886;28;20033;-83
2023/10/12 07:14:55;;;;;;;1.92;1.83;;;16.70;99.90;;;;;;5061123;28;20024;-83
2023/10/12 07:17:34;;;;;;;0.80;0.80;;;16.60;99.90;;;;;;5061766;28;20029;-83
2023/10/12 07:20:00;;;;;;;1.08;1.08;;;16.60;99.90;;;;;;5063682;28;20373;-82
2023/10/12 07:22:31;;;;;;;2.20;2.10;;;16.60;99.90;;;;;;5062262;28;20089;-81
2023/10/12 07:24:58;;;;;;;1.17;1.08;;;16.70;99.90;;;;;;5060589;28;20404;-82
2023/10/12 07:27:24;;;;;;;3.67;1.65;;;16.70;99.90;;;;;;5062394;28;20036;-82
2023/10/12 07:30:08;;;;;;;0.98;0.80;;;16.60;99.90;;;;;;5062425;28;20557;-82
2023/10/12 07:32:55;;;;;;;1.20;0.85;;;16.60;99.90;;;;;;5075582;28;20017;-82
2023/10/12 07:35:31;;;;;;;0.85;0.85;;;16.60;99.90;;;;;;5064791;28;20032;-83
2023/10/12 07:37:57;;;;;;;0.80;0.80;;;16.60;99.90;;;;;;5064039;28;20127;-83
2023/10/12 07:40:23;;;;;;;1.02;1.02;;;16.70;99.90;;;;;;5059437;28;20090;-83
2023/10/12 07:42:49;;;;;;;0.75;0.75;;;16.70;99.90;;;;;;5062724;28;20430;-82
2023/10/12 07:45:18;;;;;;;2.38;2.17;;;16.80;99.90;;;;;;5045030;28;20661;-82
2023/10/12 07:47:58;;;;;;;1.50;1.50;;;16.80;99.90;;;;;;5052422;28;20487;-83
2023/10/12 07:50:30;;;;;;;1.20;0.95;;;16.80;99.90;;;;;;5060313;28;20040;-82
2023/10/12 07:56:00;;;;;;;0.80;0.80;;;16.80;99.90;;;;;;5029123;28;20032;-82
2023/10/12 07:58:29;;;;;;;0.80;0.80;;;16.80;99.90;;;;;;5060642;28;20077;-83
2023/10/12 08:03:49;;;;;;;2.00;1.70;;;16.80;99.90;;;;;;5061995;28;20054;-83
2023/10/12 08:06:15;;;;;;;0.60;0.60;;;16.70;99.90;;;;;;5045548;28;20056;-82
2023/10/12 08:08:41;;;;;;;0.80;0.80;;;16.70;99.90;;;;;;5058937;28;20047;-83
2023/10/12 08:11:18;;;;;;;1.05;1.05;;;16.70;99.90;;;;;;5065591;28;20087;-82
2023/10/12 08:13:54;;;;;;;1.13;1.13;;;16.60;99.90;;;;;;5065792;28;20507;-82
2023/10/12 08:16:27;;;;;;;1.02;1.02;;;16.70;99.90;;;;;;5043541;28;20048;-83
2023/10/12 08:19:39;;;;;;;;;;;16.80;99.90;;;;;;5062572;28;20087;-85
2023/10/12 08:21:42;;;;;;;0.80;0.80;;;16.90;99.90;;;;;;5051088;28;20107;-83
2023/10/12 08:32:03;;;;;;;0.70;0.70;;;16.90;99.90;;;;;;5056645;28;20458;-83
2023/10/12 08:39:37;;;;;;;1.52;1.42;;;17.00;99.90;;;;;;5056479;28;20047;-83
2023/10/12 08:43:09;;;;;;;0.98;0.98;;;17.00;99.90;;;;;;5061225;28;20158;-83
2023/10/12 08:45:11;;;;;;;0.80;0.80;;;17.00;99.90;;;;;;5050292;28;20675;-83
2023/10/12 08:50:58;;;;;;;0.75;0.75;;;16.90;99.90;;;;;;5058203;28;20036;-83
2023/10/12 08:53:03;;;;;;;1.55;1.45;;;17.00;99.90;;;;;;5056558;28;20040;-85
2023/10/12 08:55:31;;;;;;;1.48;1.08;;;17.10;99.90;;;;;;5043650;28;20508;-84
2023/10/12 08:58:16;;;;;;;1.17;1.17;;;17.20;99.90;;;;;;5061560;28;20028;-85
2023/10/12 09:00:44;;;;;;;2.90;0.95;;;17.20;99.90;;;;;;5042070;28;20807;-82
2023/10/12 09:05:51;;;;;;;1.25;1.25;;;17.30;99.90;;;;;;5058725;28;20060;-82
2023/10/12 09:11:17;;;;;;;0.65;0.65;;;17.10;99.90;;;;;;5059618;28;20047;-83
2023/10/12 09:13:37;;;;;;;2.13;2.03;;;17.10;99.90;;;;;;5059846;28;20024;-81
2023/10/12 09:16:10;;;;;;;1.33;1.33;;;17.20;99.90;;;;;;5064034;28;20033;-79
2023/10/12 09:18:47;;;;;;;1.27;1.27;;;17.20;99.90;;;;;;5060291;28;20025;-80
2023/10/12 09:26:46;;;;;;;1.17;1.17;;;17.30;99.90;;;;;;5063280;28;20081;-79
2023/10/12 09:29:20;;;;;;;1.27;1.27;;;17.30;99.90;;;;;;5058433;28;20426;-81
2023/10/12 09:31:55;;;;;;;2.20;1.15;;;17.40;99.90;;;;;;5058206;28;20040;-80
2023/10/12 09:36:56;;;;;;;1.98;1.77;;;17.40;99.90;;;;;;5063439;28;20037;-80
2023/10/12 09:39:25;;;;;;;1.85;1.75;;;17.40;99.90;;;;;;5056127;28;20047;-79
2023/10/12 09:42:09;;;;;;;2.50;2.33;;;17.40;99.90;;;;;;5062093;28;20711;-78
2023/10/12 09:44:39;;;;;;;1.40;1.30;;;17.40;99.90;;;;;;5054454;28;20021;-79
2023/10/12 09:47:09;;;;;;;1.10;1.10;;;17.30;99.90;;;;;;5059821;28;20573;-80
2023/10/12 09:49:46;;;;;;;1.20;1.20;;;17.30;99.90;;;;;;5051080;28;20043;-79
2023/10/12 09:52:13;;;;;;;1.45;1.38;;;17.30;99.90;;;;;;5054519;28;20032;-78
2023/10/12 09:55:07;;;;;;;1.02;1.02;;;17.20;99.90;;;;;;5061350;28;20287;-79
2023/10/12 09:57:36;;;;;;;1.67;1.65;;;17.20;99.90;;;;;;5057351;28;20658;-78
2023/10/12 10:00:18;;;;;;;0.90;0.90;;;17.10;99.90;;;;;;5059721;28;20039;-78
2023/10/12 10:02:49;;;;;;;2.83;1.67;;;17.20;99.90;;;;;;5059852;28;20024;-78
2023/10/12 10:07:53;;;;;;;0.40;0.40;;;17.10;99.90;;;;;;5058455;28;20605;-79
2023/10/12 10:10:34;;;;;;;0.60;0.60;;;17.10;99.90;;;;;;5052444;28;20044;-79
2023/10/12 10:13:03;;;;;;;1.17;1.17;;;17.10;99.90;;;;;;5058519;28;20472;-79
2023/10/12 10:15:38;;;;;;;6.85;1.08;;;17.10;99.90;;;;;;5058680;28;20785;-80
2023/10/12 10:18:14;;;;;;;1.42;1.13;;;17.10;99.90;;;;;;5060482;28;20031;-80
2023/10/12 10:20:46;;;;;;;2.05;1.58;;;17.10;99.90;;;;;;5039816;28;20095;-80
2023/10/12 10:23:19;;;;;;;0.57;0.57;;;17.20;99.90;;;;;;5058083;28;20432;-79
2023/10/12 10:26:13;;;;;;;;;;;17.30;99.90;;;;;;5061347;28;20031;-80
2023/10/12 10:28:48;;;;;;;1.13;1.02;;;17.40;99.90;;;;;;5061496;28;19916;-80
2023/10/12 10:31:36;;;;;;;1.00;1.00;;;17.50;99.90;;;;;;5057887;28;20094;-82
2023/10/12 10:34:06;;;;;;;1.50;1.40;;;17.60;99.90;;;;;;5071114;28;20071;-80
2023/10/12 10:36:35;;;;;;;0.85;0.85;;;17.60;99.90;;;;;;5070393;28;20533;-79
2023/10/12 10:39:19;;;;;;;1.48;1.38;;;17.80;99.90;;;;;;5071774;28;20536;-78
2023/10/12 10:41:56;;;;;;;1.05;1.05;;;17.90;99.90;;;;;;5064518;28;20288;-80
2023/10/12 10:44:23;;;;;;;0.60;0.60;;;17.90;99.90;;;;;;5062292;28;20115;-80
2023/10/12 10:47:00;;;;;;;0.98;0.95;;;18.00;99.90;;;;;;5062259;28;20174;-80
2023/10/12 10:49:32;;;;;;;1.52;1.42;;;18.10;99.90;;;;;;5060706;28;20093;-80
2023/10/12 10:52:03;;;;;;;2.55;0.82;;;18.10;99.90;;;;;;5042592;28;20025;-80
2023/10/12 10:54:33;;;;;;;1.75;1.48;;;18.20;99.90;;;;;;5041821;28;20040;-81
2023/10/12 10:57:01;;;;;;;1.27;0.80;;;18.30;99.90;;;;;;5062569;28;20060;-80
2023/10/12 10:59:31;;;;;;;9.20;1.58;;;18.40;99.90;;;;;;5060682;28;20029;-81
2023/10/12 11:01:59;;;;;;;1.88;1.77;;;18.40;99.90;;;;;;5058229;28;20075;-80
2023/10/12 11:07:03;;;;;;;1.33;1.23;;;18.60;99.90;;;;;;5060463;28;20484;-80
2023/10/12 11:09:54;;;;;;;0.95;0.95;;;18.70;99.90;;;;;;5057451;28;20032;-79
2023/10/12 11:12:26;;;;;;;6.70;1.65;;;18.60;99.90;;;;;;5059505;28;20031;-79
2023/10/12 11:15:00;;;;;;;3.95;2.03;;;18.50;99.90;;;;;;5042479;28;20151;-80
2023/10/12 11:17:30;;;;;;;1.10;1.10;;;18.50;99.90;;;;;;5043630;28;20021;-80
2023/10/12 11:19:59;;;;;;;0.90;0.90;;;18.60;99.90;;;;;;5058446;28;20465;-80
2023/10/12 11:22:24;;;;;;;1.20;1.02;;;18.70;99.90;;;;;;5040164;28;20055;-79
2023/10/12 11:24:50;;;;;;;1.40;1.40;;;18.70;99.90;;;;;;5042136;28;20480;-79
2023/10/12 11:27:35;;;;;;;2.92;1.95;;;18.70;99.90;;;;;;5055066;28;20013;-81
2023/10/12 11:30:12;;;;;;;2.17;1.52;;;18.70;99.90;;;;;;5051327;28;20451;-81
2023/10/12 11:32:53;;;;;;;1.10;1.08;;;18.70;99.90;;;;;;5047697;28;20119;-81
2023/10/12 11:35:40;;;;;;;1.35;1.25;;;18.70;99.90;;;;;;5041780;28;20105;-80
2023/10/12 11:38:21;;;;;;;1.08;1.08;;;18.70;99.90;;;;;;5041451;28;20098;-81
2023/10/12 11:40:52;;;;;;;1.77;1.65;;;18.70;99.90;;;;;;5058037;28;20048;-80
2023/10/12 11:43:45;;;;;;;0.88;0.80;;;18.80;99.90;;;;;;5047017;28;20082;-81
2023/10/12 11:46:14;;;;;;;1.65;1.25;;;18.90;99.90;;;;;;5043793;28;20539;-81
2023/10/12 11:48:40;;;;;;;1.00;1.00;;;18.90;99.90;;;;;;5047338;28;20009;-81
2023/10/12 11:51:11;;;;;;;1.05;1.05;;;18.90;99.90;;;;;;5045394;28;20032;-82
2023/10/12 11:53:41;;;;;;;3.65;1.42;;;19.00;99.90;;;;;;5038599;28;20033;-83
2023/10/12 11:56:14;;;;;;;1.85;1.65;;;19.10;99.90;;;;;;5043373;28;20515;-83
2023/10/12 11:58:50;;;;;;;0.80;0.80;;;19.20;99.90;;;;;;5070096;28;20024;-82
2023/10/12 12:01:16;;;;;;;1.65;1.50;;;19.30;99.90;;;;;;5054090;28;20028;-83
2023/10/12 12:03:45;;;;;;;1.60;1.40;;;19.20;99.90;;;;;;5061257;28;20384;-83
2023/10/12 12:06:18;;;;;;;1.20;1.15;;;19.20;99.90;;;;;;5049153;28;20025;-83
2023/10/12 12:08:48;;;;;;;2.20;2.10;;;19.30;99.90;;;;;;5052592;28;20059;-83
2023/10/12 12:11:26;;;;;;;1.25;1.25;;;19.30;99.90;;;;;;5049816;28;20393;-82
2023/10/12 12:13:52;;;;;;;1.83;1.73;;;19.40;99.90;;;;;;5047297;28;20094;-83
2023/10/12 12:16:21;;;;;;;0.88;0.88;;;19.30;99.90;;;;;;5072046;28;20032;-82
2023/10/12 12:18:51;;;;;;;1.40;1.30;;;19.40;99.90;;;;;;5049359;28;20830;-84
2023/10/12 12:21:18;;;;;;;1.48;1.42;;;19.40;99.90;;;;;;5049391;28;20032;-83
2023/10/12 12:23:50;;;;;;;2.28;2.08;;;19.50;99.90;;;;;;5041232;28;20418;-82
2023/10/12 12:26:19;;;;;;;1.40;1.30;;;19.50;99.90;;;;;;5060416;28;20020;-82
2023/10/12 12:28:45;;;;;;;1.45;1.42;;;19.70;99.90;;;;;;5062353;28;20032;-83
2023/10/12 12:31:15;;;;;;;0.70;0.70;;;19.70;99.90;;;;;;5064215;28;20020;-82
2023/10/12 12:33:44;;;;;;;2.38;2.17;;;19.70;99.90;;;;;;5044984;28;20063;-83
2023/10/12 12:36:12;;;;;;;1.33;1.23;;;19.70;99.90;;;;;;5041382;28;20107;-83
2023/10/12 12:41:12;;;;;;;1.42;1.40;;;19.50;99.90;;;;;;5040849;28;20025;-83
2023/10/12 12:43:38;;;;;;;1.73;1.40;;;19.50;99.90;;;;;;5046202;28;20028;-83
2023/10/12 12:46:05;;;;;;;1.92;1.15;;;19.40;99.90;;;;;;5049119;28;20129;-82
2023/10/12 12:48:31;;;;;;;1.02;1.02;;;19.40;99.90;;;;;;5045954;28;20523;-81
2023/10/12 12:50:57;;;;;;;1.55;1.45;;;19.40;99.90;;;;;;5048319;28;20104;-83
2023/10/12 12:53:22;;;;;;;1.27;1.27;;;19.40;99.90;;;;;;5063969;28;20115;-83
2023/10/12 12:55:48;;;;;;;1.60;1.50;;;19.40;99.90;;;;;;5047931;28;20036;-82
2023/10/12 12:58:18;;;;;;;1.60;1.50;;;19.40;99.90;;;;;;5061225;28;20017;-82
2023/10/12 13:00:48;;;;;;;2.15;2.05;;;19.40;99.90;;;;;;5060796;28;20113;-82
2023/10/12 13:03:19;;;;;;;1.98;1.85;;;19.40;99.90;;;;;;5060567;28;20585;-82
2023/10/12 13:05:46;;;;;;;1.60;1.50;;;19.40;99.90;;;;;;5060094;28;20033;-82
2023/10/12 13:08:12;;;;;;;1.33;1.30;;;19.20;99.90;;;;;;5060447;28;20032;-82
2023/10/12 13:10:38;;;;;;;1.08;1.08;;;19.20;99.90;;;;;;5038205;28;20021;-83
2023/10/12 13:13:06;;;;;;;4.38;1.83;;;19.30;99.90;;;;;;5045343;28;20343;-83
2023/10/12 13:15:32;;;;;;;1.30;1.27;;;19.40;99.90;;;;;;5058528;28;20021;-83
2023/10/12 13:18:01;;;;;;;1.60;1.50;;;19.30;99.90;;;;;;5061675;28;20029;-83
2023/10/12 13:20:29;;;;;;;1.65;1.00;;;19.30;99.90;;;;;;5057065;28;20503;-83
2023/10/12 13:22:55;;;;;;;7.03;2.15;;;19.50;99.90;;;;;;5045940;28;20067;-83
2023/10/12 13:25:21;;;;;;;0.73;0.73;;;19.50;99.90;;;;;;5049785;28;20054;-82
2023/10/12 13:27:51;;;;;;;1.55;1.50;;;19.60;99.90;;;;;;5050810;28;20025;-82
2023/10/12 13:30:17;;;;;;;1.60;1.50;;;19.70;99.90;;;;;;5061801;28;20025;-83
2023/10/12 13:32:43;;;;;;;1.08;1.08;;;19.70;99.90;;;;;;5060218;28;20543;-83
2023/10/12 13:35:23;;;;;;;1.70;1.52;;;19.80;99.90;;;;;;5043439;28;20104;-83
2023/10/12 13:37:51;;;;;;;1.60;1.50;;;19.80;99.90;;;;;;5044438;28;20454;-83
2023/10/12 13:40:17;;;;;;;0.95;0.95;;;19.90;99.90;;;;;;5045760;28;20123;-82
2023/10/12 13:42:46;;;;;;;1.05;1.05;;;19.90;99.90;;;;;;5063600;28;20460;-83
2023/10/12 13:45:18;;;;;;;3.20;1.80;;;19.90;99.90;;;;;;5055535;28;20021;-82
2023/10/12 13:47:47;;;;;;;1.85;1.75;;;19.90;99.90;;;;;;5065339;28;20035;-83
2023/10/12 13:50:14;;;;;;;1.52;1.42;;;19.90;99.90;;;;;;5061497;28;20017;-83
2023/10/12 13:52:40;;;;;;;1.30;1.30;;;19.90;99.90;;;;;;5052154;28;20108;-82
2023/10/12 13:55:11;;;;;;;1.17;1.17;;;19.80;99.90;;;;;;5050102;28;20472;-82
2023/10/12 13:57:50;;;;;;;3.05;1.83;;;19.70;99.90;;;;;;5048677;28;20376;-83
2023/10/12 14:00:25;;;;;;;1.30;1.20;;;19.70;99.90;;;;;;5042795;28;20033;-83
2023/10/12 14:02:58;;;;;;;1.05;1.05;;;19.70;99.90;;;;;;5045278;28;20029;-83
2023/10/12 14:05:27;;;;;;;1.13;1.10;;;19.50;99.90;;;;;;5043462;28;20040;-82
2023/10/12 14:08:03;;;;;;;0.70;0.70;;;19.30;99.90;;;;;;5070326;28;20098;-84
2023/10/12 14:10:29;;;;;;;1.48;1.10;;;19.30;99.90;;;;;;5064379;28;20033;-81
2023/10/12 14:12:56;;;;;;;1.48;1.38;;;19.30;99.90;;;;;;5057757;28;20032;-82
2023/10/12 14:15:27;;;;;;;1.75;1.65;;;19.30;99.90;;;;;;5068092;28;20028;-82
2023/10/12 14:17:56;;;;;;;1.30;1.30;;;19.30;99.90;;;;;;5057539;28;20036;-81
2023/10/12 14:20:26;;;;;;;1.13;1.02;;;19.30;99.90;;;;;;5071988;28;20033;-82
2023/10/12 14:22:58;;;;;;;0.80;0.80;;;19.20;99.90;;;;;;5058108;28;20036;-82
2023/10/12 14:25:28;;;;;;;1.35;0.90;;;19.20;99.90;;;;;;5069810;28;20020;-82
2023/10/12 14:28:00;;;;;;;1.30;1.30;;;19.20;99.90;;;;;;5062871;28;20029;-83
2023/10/12 14:30:29;;;;;;;1.13;1.10;;;19.10;99.90;;;;;;5053400;28;20488;-82
2023/10/12 14:32:56;;;;;;;1.05;1.05;;;19.20;99.90;;;;;;5070719;28;20294;-82
2023/10/12 14:35:25;;;;;;;1.08;1.08;;;19.20;99.90;;;;;;5054701;28;20097;-83
2023/10/12 14:37:55;;;;;;;0.70;0.70;;;19.30;99.90;;;;;;5060235;28;20033;-83
2023/10/12 14:40:21;;;;;;;0.98;0.98;;;19.10;99.90;;;;;;5065856;28;20063;-83
2023/10/12 14:42:47;;;;;;;3.03;1.17;;;19.10;99.90;;;;;;5049907;28;20429;-83
2023/10/12 14:45:15;;;;;;;0.95;0.95;;;19.00;99.90;;;;;;5051059;28;20173;-83
2023/10/12 14:47:44;;;;;;;1.23;1.23;;;19.00;99.90;;;;;;5064656;28;20393;-81
2023/10/12 14:50:16;;;;;;;2.17;1.30;;;19.10;99.90;;;;;;5062986;28;20021;-82
2023/10/12 14:52:42;;;;;;;1.25;1.15;;;19.10;99.90;;;;;;5050540;28;20469;-82
2023/10/12 14:55:10;;;;;;;1.00;1.00;;;19.10;99.90;;;;;;5053698;28;20068;-82
2023/10/12 14:57:40;;;;;;;1.95;1.85;;;19.10;99.90;;;;;;5051631;28;20017;-82